createdAt,value
2024-02-13T00:01:52.852Z,6.18
2024-02-13T00:05:56.257Z,8.98
2024-02-13T00:09:59.429Z,4.97
2024-02-13T00:14:02.551Z,9.43
2024-02-13T00:18:07.316Z,14.10
2024-02-13T00:22:13.495Z,10.73
2024-02-13T00:26:17.573Z,13.15
2024-02-13T00:30:20.745Z,9.30
2024-02-13T00:34:46.069Z,6.95
2024-02-13T00:38:49.257Z,8.68
2024-02-13T00:42:53.985Z,6.57
2024-02-13T00:46:58.664Z,6.60
2024-02-13T00:51:02.173Z,7.82
2024-02-13T00:55:08.737Z,7.72
2024-02-13T00:59:12.279Z,6.22
2024-02-13T01:03:15.448Z,7.95
2024-02-13T01:07:19.347Z,4.57
2024-02-13T01:11:22.305Z,6.75
2024-02-13T01:15:25.409Z,9.48
2024-02-13T01:19:28.581Z,10.63
2024-02-13T01:23:31.623Z,11.85
2024-02-13T01:27:34.820Z,8.65
2024-02-13T01:31:38.919Z,4.75
2024-02-13T01:35:43.600Z,3.83
2024-02-13T01:39:46.663Z,7.10
2024-02-13T01:43:50.594Z,5.50
2024-02-13T01:47:55.202Z,4.65
2024-02-13T01:52:00.318Z,7.63
2024-02-13T01:56:06.419Z,6.32
2024-02-13T02:00:15.672Z,4.90
2024-02-13T02:04:19.921Z,5.32
2024-02-13T02:08:23.578Z,8.43
2024-02-13T02:12:27.261Z,7.50
2024-02-13T02:16:30.301Z,6.82
2024-02-13T02:20:33.623Z,9.32
2024-02-13T02:24:36.689Z,8.48
2024-02-13T02:28:44.538Z,4.82
2024-02-13T02:32:51.014Z,8.32
2024-02-13T02:36:54.067Z,5.03
2024-02-13T02:40:57.363Z,3.45
2024-02-13T02:45:00.424Z,7.00
2024-02-13T02:49:04.007Z,9.80
2024-02-13T02:53:07.151Z,9.38
2024-02-13T02:57:11.807Z,9.82
2024-02-13T03:01:15.172Z,5.50
2024-02-13T03:05:18.294Z,5.63
2024-02-13T03:09:21.691Z,3.47
2024-02-13T03:13:24.582Z,4.63
2024-02-13T03:17:27.924Z,7.00
2024-02-13T03:21:30.901Z,5.57
2024-02-13T03:25:33.900Z,11.20
2024-02-13T03:29:55.063Z,6.15
2024-02-13T03:33:58.119Z,6.40
2024-02-13T03:38:01.156Z,8.88
2024-02-13T03:42:04.365Z,6.22
2024-02-13T03:46:07.446Z,4.65
2024-02-13T03:50:10.748Z,4.93
2024-02-13T03:54:13.869Z,4.32
2024-02-13T03:58:16.859Z,4.53
2024-02-13T04:02:19.931Z,6.70
2024-02-13T04:06:23.182Z,9.65
2024-02-13T04:10:26.224Z,11.70
2024-02-13T04:14:33.642Z,9.20
2024-02-13T04:18:36.795Z,7.53
2024-02-13T04:22:39.972Z,9.25
2024-02-13T04:26:43.763Z,8.13
2024-02-13T04:30:46.832Z,9.07
2024-02-13T04:34:49.936Z,8.32
2024-02-13T04:38:53.074Z,7.20
2024-02-13T04:42:56.140Z,6.50
2024-02-13T04:46:59.021Z,5.30
2024-02-13T04:51:02.828Z,4.43
2024-02-13T04:55:06.197Z,5.00
2024-02-13T04:59:10.961Z,5.22
2024-02-13T05:03:27.287Z,4.90
2024-02-13T05:07:33.076Z,4.55
2024-02-13T05:11:35.994Z,3.43
2024-02-13T05:15:38.982Z,6.13
2024-02-13T05:19:42.447Z,6.38
2024-02-13T05:23:45.534Z,4.53
2024-02-13T05:27:50.115Z,6.85
2024-02-13T05:31:54.072Z,19.33
2024-02-13T05:35:58.117Z,14.48
2024-02-13T05:40:01.027Z,11.40
2024-02-13T05:44:04.540Z,14.00
2024-02-13T05:48:08.825Z,12.23
2024-02-13T05:52:11.861Z,6.40
2024-02-13T05:56:25.996Z,7.75
2024-02-13T06:00:32.546Z,9.88
2024-02-13T06:04:36.324Z,16.23
2024-02-13T06:08:39.337Z,12.73
2024-02-13T06:12:43.121Z,8.75
2024-02-13T06:16:46.232Z,6.88
2024-02-13T06:20:49.268Z,10.07
2024-02-13T06:24:52.315Z,4.25
2024-02-13T06:28:56.310Z,8.68
2024-02-13T06:32:59.647Z,8.00
2024-02-13T06:37:03.169Z,6.82
2024-02-13T06:41:12.006Z,9.23
2024-02-13T06:45:15.318Z,5.97
2024-02-13T06:49:18.556Z,4.45
2024-02-13T06:53:21.891Z,9.95
2024-02-13T06:57:25.303Z,5.93
2024-02-13T07:01:30.904Z,7.00
2024-02-13T07:05:34.053Z,7.90
2024-02-13T07:09:37.403Z,8.40
2024-02-13T07:13:40.535Z,4.50
2024-02-13T07:17:52.707Z,6.07
2024-02-13T07:22:02.710Z,6.60
2024-02-13T07:26:05.866Z,12.15
2024-02-13T07:30:10.024Z,9.23
2024-02-13T07:34:14.782Z,9.80
2024-02-13T07:38:17.944Z,13.93
2024-02-13T07:42:22.385Z,14.95
2024-02-13T07:46:25.464Z,12.30
2024-02-13T07:50:29.677Z,11.18
2024-02-13T07:54:33.008Z,14.00
2024-02-13T07:58:37.496Z,11.27
2024-02-13T08:02:41.401Z,8.93
2024-02-13T08:06:44.501Z,6.93
2024-02-13T08:10:48.898Z,9.07
2024-02-13T08:14:53.213Z,11.70
2024-02-13T08:18:57.197Z,14.63
2024-02-13T08:23:01.149Z,23.20
2024-02-13T08:27:07.768Z,17.75
2024-02-13T08:35:23.128Z,17.85
2024-02-13T08:39:26.227Z,14.25
2024-02-13T08:43:30.274Z,13.05
2024-02-13T08:47:34.357Z,13.07
2024-02-13T08:51:39.959Z,12.98
2024-02-13T08:55:49.632Z,10.93
2024-02-13T08:59:59.944Z,8.00
2024-02-13T09:04:08.060Z,9.23
2024-02-13T09:08:15.315Z,14.68
2024-02-13T09:12:25.046Z,5.63
2024-02-13T09:16:42.810Z,6.90
2024-02-13T09:21:30.283Z,9.18
2024-02-13T09:25:36.628Z,7.00
2024-02-13T09:39:23.760Z,5.20
2024-02-13T09:47:35.149Z,6.05
2024-02-13T09:51:42.209Z,4.70
2024-02-13T09:55:49.738Z,3.85
2024-02-13T09:59:58.498Z,5.03
2024-02-13T10:04:06.032Z,4.07
2024-02-13T10:08:37.828Z,3.83
2024-02-13T10:13:16.030Z,3.10
2024-02-13T10:17:31.415Z,5.10
2024-02-13T10:21:37.320Z,3.25
2024-02-13T10:25:46.182Z,4.50
2024-02-13T10:30:03.238Z,4.15
2024-02-13T10:34:23.521Z,4.70
2024-02-13T10:39:13.243Z,2.38
2024-02-13T10:43:20.205Z,3.30
2024-02-13T10:47:30.153Z,2.50
2024-02-13T10:51:41.098Z,4.57
2024-02-13T10:55:47.971Z,2.00
2024-02-13T10:59:56.969Z,4.53
2024-02-13T11:04:08.504Z,5.05
2024-02-13T11:08:39.173Z,4.32
2024-02-13T11:13:22.288Z,4.15
2024-02-13T11:17:36.304Z,4.45
2024-02-13T11:21:56.692Z,3.67
2024-02-13T11:26:53.629Z,4.40
2024-02-13T11:30:58.647Z,3.60
2024-02-13T11:35:32.415Z,3.08
2024-02-13T11:39:48.709Z,2.70
2024-02-13T13:03:54.024Z,1.98
2024-02-13T13:08:00.758Z,1.98
2024-02-13T13:12:07.679Z,2.88
2024-02-13T13:16:13.980Z,1.83
2024-02-13T13:20:20.294Z,1.13
2024-02-13T13:24:25.390Z,1.90
2024-02-13T13:28:30.885Z,2.08
2024-02-13T13:32:35.456Z,1.20
2024-02-13T13:36:41.149Z,2.60
2024-02-13T13:40:50.928Z,1.38
2024-02-13T13:44:54.903Z,1.02
2024-02-13T13:49:32.918Z,2.38
2024-02-13T13:53:36.886Z,2.40
2024-02-13T13:57:40.352Z,3.25
2024-02-13T14:01:44.642Z,2.70
2024-02-13T14:05:47.878Z,1.27
2024-02-13T14:09:53.200Z,2.13
2024-02-13T14:13:58.715Z,1.58
2024-02-13T14:18:03.359Z,1.15
2024-02-13T14:22:13.197Z,0.77
2024-02-13T14:26:17.696Z,1.20
2024-02-13T14:30:59.284Z,2.13
2024-02-13T14:35:09.169Z,1.27
2024-02-13T14:49:05.456Z,1.50
2024-02-13T14:54:01.856Z,1.20
2024-02-13T14:58:23.056Z,2.45
2024-02-13T15:13:17.100Z,1.38
2024-02-13T15:17:23.667Z,1.42
2024-02-13T15:27:49.136Z,1.63
2024-02-13T17:12:01.850Z,2.83
2024-02-13T17:16:09.543Z,2.95
2024-02-13T17:20:15.271Z,4.55
2024-02-13T17:24:23.403Z,3.17
2024-02-13T17:29:21.863Z,4.30
2024-02-13T17:33:26.250Z,3.78
2024-02-13T17:37:33.689Z,3.97
2024-02-13T17:41:38.657Z,3.95
2024-02-13T17:45:46.751Z,3.67
2024-02-13T17:49:54.741Z,3.72
2024-02-13T17:54:45.117Z,4.80
2024-02-13T17:59:09.334Z,3.75
2024-02-13T18:03:25.970Z,4.43
2024-02-13T18:07:30.135Z,3.92
2024-02-13T18:11:34.810Z,4.68
2024-02-13T18:15:54.674Z,10.57
2024-02-13T18:19:57.844Z,8.05
2024-02-13T18:24:02.690Z,6.60
2024-02-13T18:28:07.596Z,7.28
2024-02-13T18:32:13.518Z,8.85
2024-02-13T18:36:19.148Z,9.18
2024-02-13T18:40:32.376Z,14.63
2024-02-13T18:44:38.284Z,10.00
2024-02-13T18:48:42.870Z,8.52
2024-02-13T18:52:47.135Z,4.43
2024-02-13T18:56:52.919Z,6.07
2024-02-13T19:00:59.519Z,5.33
2024-02-13T19:05:02.970Z,4.30
2024-02-13T19:09:11.026Z,4.00
2024-02-13T19:13:15.312Z,4.43
2024-02-13T19:17:21.838Z,4.68
2024-02-13T19:21:26.195Z,4.65
2024-02-13T19:25:33.708Z,3.20
2024-02-13T19:29:38.463Z,3.75
2024-02-13T19:33:42.884Z,4.72
2024-02-13T19:37:50.675Z,4.07
2024-02-13T19:42:05.293Z,5.38
2024-02-13T19:51:09.388Z,4.72
2024-02-13T19:55:34.693Z,3.05
2024-02-13T20:00:47.406Z,4.32
2024-02-13T20:05:19.839Z,5.00
2024-02-13T20:09:53.089Z,3.47
2024-02-13T20:14:24.683Z,4.50
2024-02-13T20:18:33.417Z,5.45
2024-02-13T20:22:41.982Z,9.88
2024-02-13T20:26:46.935Z,5.78
2024-02-13T20:30:53.950Z,4.47
2024-02-13T20:35:10.139Z,4.03
2024-02-13T20:39:16.436Z,4.57
2024-02-13T20:43:19.818Z,5.45
2024-02-13T20:51:48.512Z,4.32
2024-02-13T20:55:54.551Z,3.95
2024-02-13T21:00:34.744Z,11.85
2024-02-13T21:04:42.854Z,5.80
2024-02-13T21:09:51.127Z,5.30
2024-02-13T21:13:47.407Z,3.93
2024-02-13T21:18:08.083Z,3.03
2024-02-13T21:22:32.542Z,4.20
2024-02-13T21:27:35.559Z,4.05
2024-02-13T21:50:46.894Z,5.40
2024-02-13T21:54:50.472Z,5.80
2024-02-13T21:58:53.881Z,5.20
2024-02-13T22:03:08.946Z,5.35
2024-02-13T22:07:12.292Z,8.90
2024-02-13T22:11:15.492Z,7.05
2024-02-13T22:15:22.313Z,7.20
2024-02-13T22:19:25.940Z,7.72
2024-02-13T22:23:30.896Z,5.68
2024-02-13T22:27:36.713Z,5.47
2024-02-13T22:31:41.829Z,7.40
2024-02-13T22:35:45.163Z,7.25
2024-02-13T22:39:53.668Z,7.43
2024-02-13T22:44:08.657Z,6.30
2024-02-13T22:48:24.702Z,4.65
2024-02-13T22:52:38.392Z,4.85
2024-02-13T22:56:51.840Z,4.78
2024-02-13T23:01:05.615Z,4.05
2024-02-13T23:05:18.089Z,5.45
2024-02-13T23:14:42.711Z,4.93
2024-02-13T23:19:16.652Z,5.90
2024-02-13T23:23:30.444Z,3.53
2024-02-13T23:27:41.933Z,4.40
2024-02-13T23:32:13.853Z,5.35
2024-02-13T23:42:24.900Z,5.85
2024-02-13T23:53:05.519Z,4.80
